Time;durP1;ratioP1;P1;durP2;ratioP2;P2;SDS_P1;SDS_P2;PMS_P1;PMS_P2;Temp;Humidity;BMP_temperature;BMP_pressure;BME280_temperature;BME280_humidity;BME280_pressure;Samples;Min_cycle;Max_cycle;Signal;HPM_P1;HPM_P2
2023/04/05 00:01:41;;;;;;;1.60;1.50;;;11.70;41.70;;;;;;5107192;27;45394;-70
2023/04/05 00:04:08;;;;;;;1.40;1.30;;;11.70;41.70;;;;;;5107026;27;45311;-69
2023/04/05 00:06:36;;;;;;;2.00;1.30;;;11.70;41.70;;;;;;5106953;27;45346;-69
2023/04/05 00:09:04;;;;;;;2.97;1.57;;;11.60;41.70;;;;;;5107234;27;45396;-69
2023/04/05 00:11:31;;;;;;;1.50;1.40;;;11.60;41.80;;;;;;5106729;27;45423;-69
2023/04/05 00:13:59;;;;;;;1.30;1.20;;;11.60;41.70;;;;;;5105584;27;45347;-69
2023/04/05 00:16:26;;;;;;;1.40;1.30;;;11.60;41.80;;;;;;5106951;27;45313;-69
2023/04/05 00:18:55;;;;;;;1.60;1.50;;;11.60;41.80;;;;;;5107118;27;45411;-69
2023/04/05 00:21:23;;;;;;;1.50;1.40;;;11.60;41.80;;;;;;5106734;27;46533;-69
2023/04/05 00:23:50;;;;;;;2.07;1.30;;;11.60;42.50;;;;;;5106569;27;45291;-69
2023/04/05 00:26:16;;;;;;;1.70;1.47;;;11.50;41.80;;;;;;5106223;27;45354;-68
2023/04/05 00:28:43;;;;;;;1.57;1.47;;;11.50;41.90;;;;;;5106707;27;45455;-69
2023/04/05 00:31:10;;;;;;;1.33;1.23;;;11.50;41.90;;;;;;5106677;27;45540;-69
2023/04/05 00:33:37;;;;;;;2.30;1.30;;;11.50;41.90;;;;;;5106581;27;45424;-69
2023/04/05 00:36:12;;;;;;;1.70;1.40;;;11.50;41.90;;;;;;5106619;27;45326;-69
2023/04/05 00:38:39;;;;;;;3.93;1.40;;;11.50;42.00;;;;;;5106800;27;45322;-68
2023/04/05 00:41:06;;;;;;;1.93;1.37;;;11.50;42.00;;;;;;5106426;27;46832;-69
2023/04/05 00:43:33;;;;;;;2.03;1.37;;;11.50;41.90;;;;;;5106219;27;45363;-69
2023/04/05 00:46:00;;;;;;;1.10;1.10;;;11.40;42.00;;;;;;5106440;27;45337;-68
2023/04/05 00:48:27;;;;;;;1.73;1.40;;;11.40;42.00;;;;;;5106446;27;45341;-69
2023/04/05 00:50:54;;;;;;;2.20;1.40;;;11.40;42.10;;;;;;5106252;27;46666;-69
2023/04/05 00:53:22;;;;;;;1.20;1.10;;;11.40;42.10;;;;;;5106571;27;45425;-68
2023/04/05 00:55:49;;;;;;;1.67;1.57;;;11.40;42.00;;;;;;5106353;27;45233;-69
2023/04/05 00:58:18;;;;;;;1.47;1.37;;;11.40;42.10;;;;;;5106603;27;45475;-69
2023/04/05 01:00:46;;;;;;;0.93;0.93;;;11.40;42.20;;;;;;5106087;27;45330;-69
2023/04/05 01:03:13;;;;;;;1.30;1.20;;;11.30;42.10;;;;;;5106163;27;45404;-68
2023/04/05 01:05:41;;;;;;;1.50;1.30;;;11.30;42.10;;;;;;5107352;27;45379;-69
2023/04/05 01:08:16;;;;;;;1.30;1.20;;;11.30;42.10;;;;;;5110146;27;45415;-69
2023/04/05 01:10:46;;;;;;;1.20;1.10;;;11.30;42.20;;;;;;5109605;27;46843;-69
2023/04/05 01:13:13;;;;;;;1.50;1.23;;;11.30;42.20;;;;;;5109851;27;45580;-69
2023/04/05 01:15:40;;;;;;;2.00;1.30;;;11.30;42.20;;;;;;5109534;27;45375;-69
2023/04/05 01:18:09;;;;;;;2.07;1.00;;;11.30;42.20;;;;;;5109768;27;45434;-68
2023/04/05 01:20:39;;;;;;;1.30;0.97;;;11.30;42.30;;;;;;5109286;27;45436;-69
2023/04/05 01:23:22;;;;;;;1.00;1.00;;;11.20;42.30;;;;;;5109389;27;45257;-69
2023/04/05 01:26:17;;;;;;;1.43;1.00;;;11.20;42.30;;;;;;5109076;27;45505;-69
2023/04/05 01:29:28;;;;;;;1.40;1.30;;;11.20;42.30;;;;;;5109319;27;45576;-69
2023/04/05 01:31:59;;;;;;;2.03;1.20;;;11.20;42.40;;;;;;5108971;27;45477;-68
2023/04/05 01:34:29;;;;;;;1.80;1.23;;;11.20;42.40;;;;;;5108977;27;45296;-69
2023/04/05 01:36:57;;;;;;;1.30;1.20;;;11.20;42.40;;;;;;5109065;27;45296;-69
2023/04/05 01:39:24;;;;;;;2.37;1.40;;;11.20;42.40;;;;;;5106669;27;45467;-69
2023/04/05 01:41:51;;;;;;;1.30;1.20;;;11.20;42.40;;;;;;5108731;27;45530;-68
2023/04/05 01:44:18;;;;;;;1.57;1.10;;;11.20;42.50;;;;;;5108742;27;45486;-69
2023/04/05 01:46:45;;;;;;;1.47;1.37;;;11.20;42.50;;;;;;5108871;27;45327;-68
2023/04/05 01:49:13;;;;;;;1.23;1.07;;;11.10;42.50;;;;;;5108948;27;45429;-69
2023/04/05 01:51:40;;;;;;;1.80;1.23;;;11.10;42.50;;;;;;5108806;27;46557;-69
2023/04/05 01:54:07;;;;;;;1.67;1.30;;;11.10;42.50;;;;;;5108974;27;45394;-69
2023/04/05 01:56:34;;;;;;;1.60;1.23;;;11.10;42.60;;;;;;5108766;27;45201;-69
2023/04/05 01:59:01;;;;;;;1.50;1.40;;;11.10;42.60;;;;;;5109073;27;45264;-69
2023/04/05 02:01:28;;;;;;;1.57;1.47;;;11.10;42.60;;;;;;5108544;27;45582;-69
2023/04/05 02:03:55;;;;;;;1.20;1.10;;;11.10;42.60;;;;;;5108558;27;45502;-69
2023/04/05 02:06:23;;;;;;;2.83;1.20;;;11.10;42.60;;;;;;5108574;27;45358;-68
2023/04/05 02:08:50;;;;;;;1.23;1.13;;;11.10;42.70;;;;;;5108719;27;45420;-69
2023/04/05 02:11:16;;;;;;;1.27;1.17;;;11.10;42.70;;;;;;5108372;27;46343;-69
2023/04/05 02:13:43;;;;;;;1.87;0.93;;;11.00;42.70;;;;;;5108336;27;45389;-69
2023/04/05 02:16:10;;;;;;;1.70;1.20;;;11.00;42.70;;;;;;5108315;27;45405;-68
2023/04/05 02:18:37;;;;;;;1.23;1.00;;;11.00;42.60;;;;;;5107864;27;45370;-69
2023/04/05 02:21:05;;;;;;;2.20;1.40;;;11.00;42.80;;;;;;5108294;27;45729;-69
2023/04/05 02:23:33;;;;;;;1.60;1.33;;;11.00;42.80;;;;;;5108076;27;45265;-69
2023/04/05 02:26:00;;;;;;;2.00;1.33;;;11.00;42.70;;;;;;5107982;27;45392;-69
2023/04/05 02:28:27;;;;;;;1.67;1.40;;;11.00;42.70;;;;;;5108502;27;45503;-68
2023/04/05 02:30:53;;;;;;;1.37;1.10;;;10.90;42.70;;;;;;5108382;27;46671;-69
2023/04/05 02:33:21;;;;;;;1.50;1.40;;;11.00;43.40;;;;;;5108280;27;45359;-69
2023/04/05 02:35:48;;;;;;;1.43;1.10;;;10.90;42.80;;;;;;5108269;27;45229;-68
2023/04/05 02:38:15;;;;;;;1.23;1.13;;;10.90;42.80;;;;;;5108283;27;45384;-69
2023/04/05 02:40:45;;;;;;;1.63;1.20;;;10.90;42.90;;;;;;5107926;27;45487;-68
2023/04/05 02:43:12;;;;;;;1.70;1.20;;;10.90;42.90;;;;;;5107928;27;45304;-69
2023/04/05 02:45:39;;;;;;;1.23;1.13;;;10.90;42.90;;;;;;5107857;27;45392;-69
2023/04/05 02:48:06;;;;;;;1.27;1.03;;;10.90;43.50;;;;;;5108107;27;45382;-69
2023/04/05 02:50:33;;;;;;;1.47;1.27;;;10.80;42.90;;;;;;5107756;27;46402;-70
2023/04/05 02:53:00;;;;;;;1.57;1.30;;;10.80;42.90;;;;;;5107747;27;45289;-68
2023/04/05 02:55:28;;;;;;;2.93;1.37;;;10.80;43.00;;;;;;5107804;27;45166;-69
2023/04/05 02:57:59;;;;;;;1.70;1.10;;;10.80;43.00;;;;;;5108028;27;45314;-69
2023/04/05 03:00:26;;;;;;;1.47;0.97;;;10.80;43.30;;;;;;5107592;27;45253;-69
2023/04/05 03:02:53;;;;;;;1.77;1.23;;;10.80;43.00;;;;;;5107581;27;45332;-69
2023/04/05 03:05:21;;;;;;;2.83;1.10;;;10.80;43.00;;;;;;5107727;27;45386;-69
2023/04/05 03:07:49;;;;;;;1.20;1.10;;;10.70;42.90;;;;;;5107752;27;45551;-69
2023/04/05 03:10:17;;;;;;;1.20;1.10;;;10.70;43.00;;;;;;5107339;27;46856;-69
2023/04/05 03:12:44;;;;;;;1.33;1.10;;;10.70;43.00;;;;;;5107495;27;45446;-69
2023/04/05 03:15:12;;;;;;;2.00;1.20;;;10.70;43.10;;;;;;5107601;27;45335;-69
2023/04/05 03:17:43;;;;;;;1.67;1.20;;;10.70;43.00;;;;;;5107591;27;45274;-69
2023/04/05 03:20:11;;;;;;;1.10;1.00;;;10.70;43.10;;;;;;5107292;27;45836;-69
2023/04/05 03:22:38;;;;;;;1.00;0.90;;;10.70;43.10;;;;;;5107243;27;45509;-68
2023/04/05 03:25:06;;;;;;;1.47;1.33;;;10.70;43.10;;;;;;5107113;27;45375;-69
2023/04/05 03:27:32;;;;;;;1.30;1.20;;;10.60;43.10;;;;;;5107405;27;45114;-69
2023/04/05 03:29:59;;;;;;;1.03;1.03;;;10.60;43.10;;;;;;5105939;27;47336;-69
2023/04/05 03:32:27;;;;;;;1.97;1.20;;;10.60;43.10;;;;;;5107032;27;45373;-69
2023/04/05 03:34:54;;;;;;;1.40;1.27;;;10.60;43.20;;;;;;5107240;27;45332;-69
2023/04/05 03:37:21;;;;;;;1.57;1.40;;;10.60;43.20;;;;;;5107374;27;45252;-68
2023/04/05 03:39:48;;;;;;;1.00;1.00;;;10.60;43.10;;;;;;5106913;27;45483;-69
2023/04/05 03:42:16;;;;;;;1.67;1.20;;;10.60;43.20;;;;;;5106919;27;45392;-69
2023/04/05 03:44:43;;;;;;;1.73;1.20;;;10.60;43.20;;;;;;5107055;27;45464;-69
2023/04/05 03:47:10;;;;;;;1.17;1.10;;;10.60;43.20;;;;;;5107161;27;45274;-68
2023/04/05 03:49:38;;;;;;;1.60;1.23;;;10.50;43.30;;;;;;5106983;27;46452;-68
2023/04/05 03:52:05;;;;;;;1.70;1.17;;;10.50;43.80;;;;;;5106850;27;45344;-70
2023/04/05 03:54:32;;;;;;;1.33;1.23;;;10.50;43.30;;;;;;5107017;27;45340;-70
2023/04/05 03:56:59;;;;;;;1.33;1.20;;;10.50;43.30;;;;;;5107014;27;45369;-69
2023/04/05 03:59:26;;;;;;;1.40;1.00;;;10.50;43.30;;;;;;5106731;27;46384;-69
2023/04/05 04:01:53;;;;;;;1.63;1.37;;;10.50;44.00;;;;;;5106773;27;45327;-69
2023/04/05 04:04:20;;;;;;;1.27;1.17;;;10.50;43.30;;;;;;5106764;27;45354;-69
2023/04/05 04:06:48;;;;;;;1.30;1.20;;;10.50;43.40;;;;;;5107061;27;45372;-69
2023/04/05 04:09:15;;;;;;;1.77;1.10;;;10.40;43.30;;;;;;5106545;27;46349;-69
2023/04/05 04:11:41;;;;;;;1.50;1.20;;;10.40;43.40;;;;;;5106709;27;45256;-69
2023/04/05 04:14:08;;;;;;;1.70;1.20;;;10.40;43.40;;;;;;5106849;27;45362;-69
2023/04/05 04:16:35;;;;;;;1.67;1.17;;;10.40;43.40;;;;;;5107066;27;45359;-68
2023/04/05 04:19:02;;;;;;;1.40;1.30;;;10.40;43.50;;;;;;5106661;27;46924;-69
2023/04/05 04:21:31;;;;;;;2.20;1.37;;;10.40;43.40;;;;;;5106775;27;45463;-68
2023/04/05 04:23:59;;;;;;;1.83;1.40;;;10.40;43.50;;;;;;5106826;27;45310;-69
2023/04/05 04:26:27;;;;;;;2.40;1.40;;;10.30;43.50;;;;;;5106445;27;45558;-68
2023/04/05 04:28:54;;;;;;;1.40;1.30;;;10.30;43.50;;;;;;5106465;27;45773;-68
2023/04/05 04:31:21;;;;;;;2.90;1.37;;;10.30;43.50;;;;;;5106639;27;45276;-69
2023/04/05 04:33:49;;;;;;;1.20;1.10;;;10.30;43.50;;;;;;5106572;27;45261;-69
2023/04/05 04:36:17;;;;;;;2.10;1.43;;;10.30;43.60;;;;;;5106606;27;45320;-69
2023/04/05 04:38:43;;;;;;;1.40;1.30;;;10.30;43.50;;;;;;5106201;27;45779;-69
2023/04/05 04:41:12;;;;;;;1.07;0.97;;;10.30;43.50;;;;;;5110252;27;45349;-70
2023/04/05 04:43:42;;;;;;;1.90;1.40;;;10.30;43.60;;;;;;5113299;27;45261;-70
2023/04/05 04:46:13;;;;;;;2.07;1.40;;;10.30;43.60;;;;;;5113230;27;45347;-69
2023/04/05 04:48:42;;;;;;;1.40;1.30;;;10.20;43.60;;;;;;5112802;27;45491;-69
2023/04/05 04:51:08;;;;;;;1.90;1.50;;;10.20;43.60;;;;;;5112930;27;45297;-69
2023/04/05 04:53:35;;;;;;;1.60;1.37;;;10.20;43.60;;;;;;5113214;27;45308;-69
2023/04/05 04:56:05;;;;;;;1.33;1.23;;;10.20;43.50;;;;;;5113063;27;45246;-69
2023/04/05 04:58:33;;;;;;;1.20;1.10;;;10.20;43.70;;;;;;5112616;27;46507;-69
2023/04/05 05:01:00;;;;;;;1.20;1.10;;;10.20;43.60;;;;;;5112815;27;45297;-69
2023/04/05 05:03:27;;;;;;;1.17;1.10;;;10.20;43.70;;;;;;5112805;27;45332;-69
2023/04/05 05:05:55;;;;;;;1.53;1.43;;;10.10;43.60;;;;;;5112877;27;45296;-70
2023/04/05 05:08:22;;;;;;;1.73;1.17;;;10.20;43.70;;;;;;5112435;27;45463;-69
2023/04/05 05:10:51;;;;;;;1.33;1.10;;;10.10;43.70;;;;;;5112537;27;45424;-69
2023/04/05 05:13:18;;;;;;;2.53;1.50;;;10.10;43.70;;;;;;5112744;27;45312;-68
2023/04/05 05:15:47;;;;;;;1.77;1.37;;;10.10;44.40;;;;;;5112845;27;45315;-69
2023/04/05 05:18:14;;;;;;;1.53;1.43;;;10.10;43.90;;;;;;5112317;27;46743;-69
2023/04/05 05:20:41;;;;;;;1.70;1.33;;;10.10;43.80;;;;;;5112455;27;45320;-69
2023/04/05 05:23:08;;;;;;;2.03;1.40;;;10.10;43.80;;;;;;5112525;27;45271;-69
2023/04/05 05:25:35;;;;;;;1.83;1.20;;;10.10;43.80;;;;;;5112366;27;45505;-69
2023/04/05 05:28:02;;;;;;;2.63;1.20;;;10.00;43.80;;;;;;5112297;27;47385;-68
2023/04/05 05:30:30;;;;;;;1.30;1.20;;;10.10;43.80;;;;;;5112377;27;45312;-68
2023/04/05 05:32:58;;;;;;;3.53;1.50;;;10.00;43.80;;;;;;5112364;27;45195;-69
2023/04/05 05:35:26;;;;;;;1.83;1.23;;;10.00;43.80;;;;;;5112704;27;45392;-69
2023/04/05 05:37:53;;;;;;;2.00;1.40;;;10.00;43.70;;;;;;5112031;27;45743;-69
2023/04/05 05:40:20;;;;;;;3.90;1.20;;;10.00;43.80;;;;;;5112273;27;45312;-69
2023/04/05 05:42:47;;;;;;;3.57;1.30;;;10.00;43.90;;;;;;5112207;27;45313;-69
2023/04/05 05:45:13;;;;;;;1.37;1.27;;;10.00;43.70;;;;;;5112349;27;45306;-69
2023/04/05 05:47:40;;;;;;;1.77;1.50;;;10.00;43.80;;;;;;5111652;27;46706;-69
2023/04/05 05:50:10;;;;;;;1.03;1.03;;;10.00;43.90;;;;;;5112321;27;45395;-68
2023/04/05 05:52:36;;;;;;;2.23;1.70;;;10.00;43.90;;;;;;5109074;27;45322;-69
2023/04/05 05:55:04;;;;;;;1.10;1.00;;;10.00;44.40;;;;;;5109066;27;45420;-68
2023/04/05 05:57:31;;;;;;;2.70;1.30;;;10.00;43.80;;;;;;5108457;27;46759;-68
2023/04/05 05:59:57;;;;;;;2.03;1.23;;;10.00;43.90;;;;;;5108498;27;45390;-69
2023/04/05 06:02:25;;;;;;;2.07;1.30;;;10.00;43.90;;;;;;5108609;27;45354;-68
2023/04/05 06:04:51;;;;;;;1.37;1.20;;;10.00;43.90;;;;;;5108670;27;45492;-69
2023/04/05 06:07:20;;;;;;;2.20;1.50;;;10.00;43.90;;;;;;5108297;27;46675;-69
2023/04/05 06:09:47;;;;;;;2.00;1.30;;;10.00;43.90;;;;;;5108455;27;45374;-69
2023/04/05 06:12:14;;;;;;;1.37;1.23;;;10.00;43.90;;;;;;5108659;27;45364;-69
2023/04/05 06:14:40;;;;;;;4.10;1.40;;;10.00;44.00;;;;;;5108920;27;45367;-69
2023/04/05 06:17:07;;;;;;;1.30;1.20;;;10.00;43.90;;;;;;5108071;27;46665;-69
2023/04/05 06:19:34;;;;;;;1.43;1.33;;;10.00;44.00;;;;;;5108359;27;45329;-68
2023/04/05 06:22:01;;;;;;;1.30;1.20;;;10.00;43.90;;;;;;5108469;27;45403;-69
2023/04/05 06:24:30;;;;;;;2.27;1.33;;;10.00;43.90;;;;;;5108451;27;45384;-68
2023/04/05 06:26:57;;;;;;;1.97;1.37;;;10.00;44.00;;;;;;5107690;27;46448;-68
2023/04/05 06:29:24;;;;;;;3.20;1.50;;;10.00;43.90;;;;;;5108064;27;45288;-69
2023/04/05 06:31:51;;;;;;;3.43;1.50;;;10.00;43.90;;;;;;5108290;27;45350;-68
2023/04/05 06:34:18;;;;;;;1.90;1.30;;;9.90;43.90;;;;;;5108263;27;45538;-69
2023/04/05 06:36:45;;;;;;;1.83;1.30;;;10.00;43.90;;;;;;5107868;27;46860;-68
2023/04/05 06:39:12;;;;;;;3.13;1.40;;;10.00;44.00;;;;;;5107825;27;45335;-68
2023/04/05 06:41:40;;;;;;;2.57;1.40;;;10.00;43.90;;;;;;5108031;27;45308;-68
2023/04/05 06:44:07;;;;;;;2.57;1.77;;;10.00;43.90;;;;;;5108127;27;45261;-68
2023/04/05 06:46:34;;;;;;;1.53;1.43;;;10.00;43.90;;;;;;5107645;27;45542;-68
2023/04/05 06:49:01;;;;;;;1.70;1.37;;;10.00;43.90;;;;;;5107698;27;45404;-69
2023/04/05 06:51:28;;;;;;;4.10;1.50;;;10.00;43.90;;;;;;5107904;27;45242;-69
2023/04/05 06:53:55;;;;;;;4.17;1.50;;;10.00;43.90;;;;;;5108037;27;45331;-69
2023/04/05 06:56:22;;;;;;;2.77;1.67;;;10.00;43.90;;;;;;5107502;27;45473;-68
2023/04/05 06:58:50;;;;;;;2.60;1.60;;;10.00;43.90;;;;;;5107537;27;45355;-68
2023/04/05 07:01:17;;;;;;;1.67;1.50;;;10.00;43.90;;;;;;5107703;27;45326;-69
2023/04/05 07:03:44;;;;;;;1.37;1.27;;;10.00;43.90;;;;;;5107706;27;45299;-69
2023/04/05 07:06:11;;;;;;;2.03;1.53;;;10.00;43.90;;;;;;5107231;27;46579;-68
2023/04/05 07:08:38;;;;;;;4.70;1.40;;;10.00;43.90;;;;;;5107416;27;45375;-68
2023/04/05 07:11:05;;;;;;;3.53;1.50;;;10.00;43.90;;;;;;5107612;27;45390;-68
2023/04/05 07:13:32;;;;;;;2.67;1.50;;;10.00;43.90;;;;;;5107616;27;45463;-69
2023/04/05 07:16:03;;;;;;;2.27;1.50;;;10.00;43.90;;;;;;5107296;27;46243;-69
2023/04/05 07:18:30;;;;;;;3.07;1.50;;;10.00;43.90;;;;;;5107259;27;45362;-68
2023/04/05 07:21:00;;;;;;;3.10;1.50;;;10.00;43.90;;;;;;5107454;27;45294;-68
2023/04/05 07:23:27;;;;;;;1.97;1.40;;;10.00;43.90;;;;;;5107536;27;45581;-68
2023/04/05 07:25:54;;;;;;;1.83;1.30;;;10.00;43.90;;;;;;5106849;27;45744;-68
2023/04/05 07:28:21;;;;;;;1.77;1.60;;;10.10;43.90;;;;;;5107079;27;45371;-70
2023/04/05 07:30:48;;;;;;;3.90;1.33;;;10.10;43.80;;;;;;5106962;27;45245;-68
2023/04/05 07:33:17;;;;;;;3.60;1.70;;;10.10;43.80;;;;;;5107405;27;45395;-69
2023/04/05 07:35:43;;;;;;;1.20;1.10;;;10.10;43.80;;;;;;5107014;27;46350;-69
2023/04/05 07:38:10;;;;;;;2.97;1.70;;;10.10;43.80;;;;;;5106923;27;45294;-69
2023/04/05 07:40:37;;;;;;;2.70;1.73;;;10.10;43.80;;;;;;5107174;27;45279;-69
2023/04/05 07:43:04;;;;;;;3.03;1.70;;;10.20;43.80;;;;;;5107241;27;45375;-68
2023/04/05 07:45:31;;;;;;;3.83;1.60;;;10.20;43.80;;;;;;5106620;27;46935;-68
2023/04/05 07:47:58;;;;;;;2.20;1.57;;;10.20;43.80;;;;;;5106595;27;45421;-68
2023/04/05 07:50:26;;;;;;;3.13;1.60;;;10.20;43.80;;;;;;5106872;27;45264;-69
2023/04/05 07:52:53;;;;;;;1.77;1.40;;;10.20;43.80;;;;;;5107216;27;44746;-69
2023/04/05 07:55:20;;;;;;;2.13;1.30;;;10.20;43.90;;;;;;5106470;27;45248;-69
2023/04/05 07:57:47;;;;;;;1.73;1.43;;;10.30;43.90;;;;;;5106557;27;45283;-68
2023/04/05 08:00:14;;;;;;;4.33;1.50;;;10.20;43.90;;;;;;5106822;27;45363;-68
2023/04/05 08:02:41;;;;;;;2.70;2.00;;;10.30;43.90;;;;;;5106748;27;45557;-69
2023/04/05 08:05:08;;;;;;;1.80;1.60;;;10.20;43.90;;;;;;5106497;27;46385;-69
2023/04/05 08:07:36;;;;;;;1.87;1.30;;;10.30;43.90;;;;;;5106403;27;45261;-69
2023/04/05 08:10:04;;;;;;;2.87;1.63;;;10.30;43.90;;;;;;5106599;27;45471;-68
2023/04/05 08:12:30;;;;;;;3.33;1.70;;;10.30;43.90;;;;;;5106698;27;45561;-69
2023/04/05 08:14:57;;;;;;;3.60;1.40;;;10.30;43.90;;;;;;5105440;27;45543;-69
2023/04/05 08:17:25;;;;;;;2.00;1.43;;;10.30;43.90;;;;;;5106373;27;45260;-68
2023/04/05 08:19:52;;;;;;;3.30;1.37;;;10.30;43.90;;;;;;5106448;27;45406;-69
2023/04/05 08:22:19;;;;;;;3.23;1.37;;;10.40;43.90;;;;;;5106468;27;45479;-69
2023/04/05 08:24:48;;;;;;;3.00;1.63;;;10.40;43.90;;;;;;5106133;27;48558;-69
2023/04/05 08:27:14;;;;;;;1.67;1.57;;;10.40;43.90;;;;;;5105907;27;45357;-70
2023/04/05 08:29:41;;;;;;;2.07;1.40;;;10.40;43.90;;;;;;5106433;27;45269;-69
2023/04/05 08:32:08;;;;;;;1.30;1.20;;;10.40;43.90;;;;;;5106419;27;45265;-68
2023/04/05 08:34:35;;;;;;;1.83;1.50;;;10.40;43.90;;;;;;5106009;27;45591;-69
2023/04/05 08:37:02;;;;;;;1.83;1.00;;;10.50;44.00;;;;;;5106117;27;45250;-69
2023/04/05 08:39:29;;;;;;;2.10;1.40;;;10.50;44.00;;;;;;5106255;27;45311;-69
2023/04/05 08:42:01;;;;;;;2.17;1.67;;;10.50;44.00;;;;;;5106462;27;45569;-69
2023/04/05 08:44:29;;;;;;;2.63;1.60;;;10.50;44.00;;;;;;5105970;27;45427;-69
2023/04/05 08:46:56;;;;;;;2.93;1.30;;;10.50;44.00;;;;;;5105827;27;45325;-69
2023/04/05 08:49:22;;;;;;;3.33;1.47;;;10.50;44.00;;;;;;5106123;27;45387;-69
2023/04/05 08:51:49;;;;;;;1.97;1.07;;;10.50;44.00;;;;;;5106120;27;45450;-68
2023/04/05 08:54:17;;;;;;;1.37;1.10;;;10.50;44.00;;;;;;5105866;27;45401;-69
2023/04/05 08:56:44;;;;;;;1.83;1.17;;;10.60;44.00;;;;;;5105759;27;45273;-69
2023/04/05 08:59:12;;;;;;;2.77;1.27;;;10.60;44.00;;;;;;5106082;27;45293;-69
2023/04/05 09:01:44;;;;;;;1.67;1.33;;;10.60;44.00;;;;;;5105857;27;45311;-69
2023/04/05 09:04:14;;;;;;;3.13;1.60;;;10.60;44.40;;;;;;5077509;27;45447;-69
2023/04/05 09:06:41;;;;;;;5.97;1.63;;;10.70;45.90;;;;;;5083530;28;45333;-73
2023/04/05 09:09:08;;;;;;;3.63;1.33;;;10.80;45.60;;;;;;5084923;28;45336;-71
2023/04/05 09:11:35;;;;;;;3.63;1.60;;;10.90;45.40;;;;;;5085309;28;45329;-71
2023/04/05 09:14:03;;;;;;;3.17;1.30;;;11.00;45.10;;;;;;5085067;28;46389;-70
2023/04/05 09:16:31;;;;;;;10.40;1.80;;;11.10;44.90;;;;;;5085340;28;45328;-67
2023/04/05 09:18:58;;;;;;;5.00;1.33;;;11.30;45.30;;;;;;5086150;28;45327;-70
2023/04/05 09:21:25;;;;;;;1.80;1.47;;;11.40;44.50;;;;;;5086708;28;45321;-69
2023/04/05 09:23:54;;;;;;;3.37;1.60;;;11.50;44.30;;;;;;5085776;28;46655;-71
2023/04/05 09:26:21;;;;;;;7.87;3.20;;;11.60;44.20;;;;;;5084576;27;45392;-70
2023/04/05 09:28:48;;;;;;;4.73;2.23;;;11.70;43.90;;;;;;5087917;28;45332;-70
2023/04/05 09:31:32;;;;;;;4.63;1.90;;;11.70;43.70;;;;;;5089191;28;45246;-72
2023/04/05 09:34:00;;;;;;;3.70;2.53;;;11.80;43.70;;;;;;5088508;28;46496;-71
2023/04/05 09:36:28;;;;;;;2.20;2.00;;;11.90;43.40;;;;;;5088934;28;45459;-69
2023/04/05 09:39:04;;;;;;;4.77;2.20;;;11.90;43.60;;;;;;5088454;28;45393;-72
2023/04/05 09:41:31;;;;;;;9.33;2.10;;;12.00;43.70;;;;;;5089586;28;45622;-72
2023/04/05 09:43:58;;;;;;;5.33;2.23;;;12.00;43.10;;;;;;5088101;28;47851;-73
2023/04/05 09:46:34;;;;;;;3.73;2.13;;;12.00;43.50;;;;;;5088162;28;45324;-72
2023/04/05 09:49:02;;;;;;;6.60;2.40;;;12.00;43.50;;;;;;5088211;28;45376;-72
2023/04/05 09:51:33;;;;;;;8.17;2.17;;;12.00;43.50;;;;;;5086162;28;45512;-72
2023/04/05 09:54:01;;;;;;;5.40;3.17;;;12.10;43.80;;;;;;5085920;27;45424;-73
2023/04/05 09:56:28;;;;;;;5.83;3.40;;;12.10;43.80;;;;;;5087752;28;45444;-72
2023/04/05 09:59:00;;;;;;;5.23;3.47;;;12.10;43.60;;;;;;5087984;28;45337;-72
2023/04/05 10:01:28;;;;;;;6.30;3.03;;;12.10;43.20;;;;;;5088804;28;45572;-73
2023/04/05 10:03:56;;;;;;;10.67;3.40;;;12.20;43.40;;;;;;5088043;28;45459;-73
2023/04/05 10:06:23;;;;;;;5.83;3.80;;;12.20;43.20;;;;;;5088130;28;45284;-71
2023/04/05 10:08:50;;;;;;;9.00;3.20;;;12.30;43.40;;;;;;5085644;28;45341;-71
2023/04/05 10:11:17;;;;;;;9.93;3.43;;;12.40;43.10;;;;;;5087059;27;45392;-72
2023/04/05 10:13:44;;;;;;;8.10;4.00;;;12.40;43.30;;;;;;5085567;28;46414;-71
2023/04/05 10:16:13;;;;;;;7.93;4.97;;;12.50;43.80;;;;;;5087288;28;45539;-70
2023/04/05 10:18:42;;;;;;;6.97;4.87;;;12.60;44.50;;;;;;5087950;28;45400;-72
2023/04/05 10:21:11;;;;;;;13.40;4.30;;;12.60;43.70;;;;;;5087903;28;45315;-70
2023/04/05 10:23:38;;;;;;;4.40;3.73;;;12.70;43.70;;;;;;5086759;28;46729;-71
2023/04/05 10:26:08;;;;;;;7.27;3.73;;;12.80;43.50;;;;;;5084712;28;45435;-72
2023/04/05 10:28:36;;;;;;;6.57;3.60;;;12.90;43.40;;;;;;5085263;28;45483;-74
2023/04/05 10:31:10;;;;;;;5.27;3.27;;;12.90;43.40;;;;;;5084449;28;45464;-71
2023/04/05 10:33:40;;;;;;;5.73;3.80;;;13.00;43.30;;;;;;5077025;28;46419;-73
2023/04/05 10:36:14;;;;;;;7.90;4.00;;;13.10;43.20;;;;;;5080166;28;45485;-72
2023/04/05 10:38:47;;;;;;;3.87;3.10;;;13.20;43.10;;;;;;5076041;27;45482;-73
2023/04/05 10:41:14;;;;;;;14.87;3.83;;;13.30;42.70;;;;;;5075056;28;45752;-71
2023/04/05 10:43:41;;;;;;;8.47;3.70;;;13.40;42.80;;;;;;5070998;28;46499;-71
2023/04/05 10:46:08;;;;;;;12.70;3.47;;;13.50;42.70;;;;;;5081182;28;45372;-73
2023/04/05 10:48:37;;;;;;;3.60;3.10;;;13.50;42.80;;;;;;5081834;28;45463;-73
2023/04/05 10:51:04;;;;;;;4.97;3.10;;;13.60;43.10;;;;;;5084628;28;45469;-71
2023/04/05 10:53:32;;;;;;;3.17;2.83;;;13.80;42.70;;;;;;5086181;28;46697;-71
2023/04/05 10:55:59;;;;;;;5.53;2.73;;;13.90;42.50;;;;;;5086545;28;45391;-70
2023/04/05 10:58:26;;;;;;;5.97;2.83;;;14.00;42.40;;;;;;5085594;28;45619;-70
2023/04/05 11:00:53;;;;;;;3.53;2.80;;;14.00;42.20;;;;;;5068293;28;45551;-70
2023/04/05 11:03:45;;;;;;;9.70;3.47;;;14.10;42.20;;;;;;5079334;28;46693;-69
2023/04/05 11:06:19;;;;;;;5.90;3.00;;;14.20;42.20;;;;;;5086685;28;45533;-70
2023/04/05 11:08:49;;;;;;;6.03;3.00;;;14.30;41.80;;;;;;5087034;28;45387;-70
2023/04/05 11:11:17;;;;;;;5.03;3.40;;;14.40;41.70;;;;;;5087297;28;45175;-71
2023/04/05 11:13:51;;;;;;;6.07;3.05;;;14.40;41.60;;;;;;5086487;28;46585;-70
2023/04/05 11:16:18;;;;;;;6.93;3.03;;;14.50;41.80;;;;;;5086352;28;45394;-70
2023/04/05 11:18:46;;;;;;;3.47;2.92;;;14.60;41.70;;;;;;5086806;28;45344;-71
2023/04/05 11:21:13;;;;;;;5.00;2.63;;;14.70;41.70;;;;;;5086062;28;45574;-71
2023/04/05 11:24:03;;;;;;;4.70;2.88;;;14.80;41.30;;;;;;5086169;28;45652;-71
2023/04/05 11:26:34;;;;;;;3.25;2.88;;;14.80;41.20;;;;;;5085975;28;45384;-73
2023/04/05 11:29:01;;;;;;;6.03;3.03;;;14.90;41.30;;;;;;5086844;28;45331;-72
2023/04/05 11:31:28;;;;;;;4.90;3.05;;;15.00;41.50;;;;;;5086811;28;45424;-71
2023/04/05 11:33:58;;;;;;;5.35;2.88;;;15.20;41.20;;;;;;5086112;28;46642;-70
2023/04/05 11:36:32;;;;;;;7.95;3.08;;;15.30;40.50;;;;;;5086117;28;45344;-73
2023/04/05 11:39:28;;;;;;;2.88;2.40;;;15.30;41.10;;;;;;5086539;28;45384;-70
2023/04/05 11:42:01;;;;;;;3.25;2.75;;;15.40;40.50;;;;;;5086447;28;45357;-70
2023/04/05 11:44:30;;;;;;;3.15;2.30;;;15.50;40.80;;;;;;5085959;28;47395;-72
2023/04/05 11:46:57;;;;;;;3.80;2.47;;;15.60;40.70;;;;;;5085924;28;45358;-72
2023/04/05 11:49:24;;;;;;;4.07;2.65;;;15.70;40.60;;;;;;5083394;28;45222;-71
2023/04/05 11:51:51;;;;;;;5.32;2.60;;;15.80;40.10;;;;;;5085987;28;45517;-74
2023/04/05 11:54:35;;;;;;;5.40;2.40;;;15.90;39.90;;;;;;5085772;28;46313;-71
2023/04/05 11:57:02;;;;;;;4.07;2.70;;;16.00;40.20;;;;;;5085763;28;45285;-72
2023/04/05 11:59:31;;;;;;;4.57;2.70;;;16.10;40.00;;;;;;5086019;28;45356;-72
2023/04/05 12:01:59;;;;;;;4.95;2.70;;;16.20;39.90;;;;;;5086333;28;45250;-72
2023/04/05 12:04:26;;;;;;;11.07;3.47;;;16.30;39.70;;;;;;5085681;28;45331;-73
2023/04/05 12:07:08;;;;;;;5.50;2.83;;;16.40;39.40;;;;;;5085531;28;45313;-71
2023/04/05 12:09:36;;;;;;;7.40;2.72;;;16.40;39.00;;;;;;5086093;28;45390;-71
2023/04/05 12:12:03;;;;;;;6.35;2.58;;;16.40;39.30;;;;;;5086189;28;45487;-70
2023/04/05 12:14:32;;;;;;;5.30;2.50;;;16.40;38.80;;;;;;5085577;28;47004;-73
2023/04/05 12:16:59;;;;;;;5.10;2.58;;;16.50;39.00;;;;;;5085552;28;45271;-72
2023/04/05 12:19:25;;;;;;;3.67;2.20;;;16.50;39.30;;;;;;5086145;28;45294;-73
2023/04/05 12:21:52;;;;;;;2.97;2.67;;;16.50;38.80;;;;;;5085127;28;45378;-73
2023/04/05 12:24:19;;;;;;;2.70;2.20;;;16.60;38.70;;;;;;5085359;28;45300;-72
2023/04/05 12:26:47;;;;;;;2.92;2.25;;;16.60;38.60;;;;;;5085516;28;45290;-72
2023/04/05 12:29:14;;;;;;;2.72;2.40;;;16.60;38.70;;;;;;5085807;28;45308;-70
2023/04/05 12:31:41;;;;;;;3.75;2.40;;;16.60;39.20;;;;;;5086046;28;45479;-72
2023/04/05 12:34:08;;;;;;;8.15;2.40;;;16.60;38.90;;;;;;5085417;28;45436;-73
2023/04/05 12:36:35;;;;;;;6.32;2.80;;;16.60;38.70;;;;;;5085406;28;45326;-74
2023/04/05 12:39:07;;;;;;;3.80;2.35;;;16.70;39.50;;;;;;5086724;28;45254;-75
2023/04/05 12:41:34;;;;;;;3.90;2.53;;;16.80;39.30;;;;;;5086091;28;45483;-72
2023/04/05 12:44:06;;;;;;;2.33;1.95;;;16.90;38.60;;;;;;5084616;28;46672;-72
2023/04/05 12:46:40;;;;;;;12.15;2.67;;;17.00;38.80;;;;;;5084729;28;45441;-73
2023/04/05 12:49:07;;;;;;;6.35;2.30;;;17.00;38.50;;;;;;5085633;28;45454;-73
2023/04/05 12:51:34;;;;;;;7.88;2.80;;;17.00;38.40;;;;;;5085214;28;45409;-73